createdAt,value
2023-02-02T00:00:58.593Z,7.00
2023-02-02T00:03:25.363Z,7.10
2023-02-02T00:05:53.131Z,7.00
2023-02-02T00:08:21.408Z,7.10
2023-02-02T00:10:48.247Z,7.10
2023-02-02T00:13:15.024Z,7.00
2023-02-02T00:15:41.854Z,7.10
2023-02-02T00:18:08.581Z,7.10
2023-02-02T00:20:35.299Z,7.00
2023-02-02T00:23:02.256Z,7.10
2023-02-02T00:25:29.181Z,7.10
2023-02-02T00:27:56.257Z,7.00
2023-02-02T00:30:23.141Z,7.00
2023-02-02T00:32:52.220Z,7.00
2023-02-02T00:35:19.245Z,7.10
2023-02-02T00:37:46.125Z,7.10
2023-02-02T00:40:12.916Z,7.10
2023-02-02T00:42:39.773Z,7.00
2023-02-02T00:45:18.700Z,7.00
2023-02-02T00:47:46.629Z,7.00
2023-02-02T00:50:16.788Z,7.00
2023-02-02T00:52:43.654Z,7.00
2023-02-02T00:55:10.994Z,7.00
2023-02-02T00:57:37.862Z,7.10
2023-02-02T01:00:06.968Z,7.00
2023-02-02T01:02:34.509Z,7.00
2023-02-02T01:05:01.578Z,7.00
2023-02-02T01:07:28.491Z,7.00
2023-02-02T01:09:55.276Z,7.00
2023-02-02T01:12:21.992Z,7.10
2023-02-02T01:14:48.813Z,7.00
2023-02-02T01:17:15.717Z,7.10
2023-02-02T01:19:42.752Z,7.10
2023-02-02T01:22:09.901Z,7.00
2023-02-02T01:24:36.632Z,7.10
2023-02-02T01:27:03.442Z,7.10
2023-02-02T01:29:30.243Z,7.00
2023-02-02T01:31:57.900Z,7.10
2023-02-02T01:34:24.770Z,7.00
2023-02-02T01:36:51.508Z,7.00
2023-02-02T01:39:18.264Z,7.00
2023-02-02T01:41:45.089Z,7.10
2023-02-02T01:44:30.353Z,7.00
2023-02-02T01:46:57.115Z,7.10
2023-02-02T01:49:23.902Z,7.00
2023-02-02T01:51:53.707Z,7.10
2023-02-02T01:54:21.952Z,7.00
2023-02-02T01:56:54.468Z,7.10
2023-02-02T01:59:21.679Z,7.00
2023-02-02T02:01:48.990Z,7.00
2023-02-02T02:04:15.898Z,7.10
2023-02-02T02:06:42.806Z,7.00
2023-02-02T02:09:09.572Z,7.10
2023-02-02T02:11:36.656Z,7.10
2023-02-02T02:14:23.813Z,7.00
2023-02-02T02:17:09.317Z,7.00
2023-02-02T02:19:36.064Z,7.00
2023-02-02T02:22:24.935Z,7.00
2023-02-02T02:25:26.865Z,7.10
2023-02-02T02:28:12.327Z,7.00
2023-02-02T02:30:39.130Z,7.00
2023-02-02T02:33:08.009Z,7.00
2023-02-02T02:35:40.361Z,7.00
2023-02-02T02:38:15.211Z,7.00
2023-02-02T02:40:47.894Z,7.00
2023-02-02T02:43:27.621Z,7.00
2023-02-02T02:45:54.681Z,7.00
2023-02-02T02:48:21.566Z,7.00
2023-02-02T02:50:48.384Z,7.00
2023-02-02T02:53:17.618Z,7.00
2023-02-02T02:56:01.606Z,7.00
2023-02-02T02:58:34.503Z,7.00
2023-02-02T03:01:10.108Z,7.00
2023-02-02T03:03:49.921Z,7.00
2023-02-02T03:06:22.879Z,7.00
2023-02-02T03:08:56.003Z,7.10
2023-02-02T03:11:22.854Z,7.10
2023-02-02T03:13:49.785Z,7.00
2023-02-02T03:16:17.318Z,7.00
2023-02-02T03:18:44.221Z,7.10
2023-02-02T03:21:11.066Z,7.00
2023-02-02T03:23:38.778Z,7.00
2023-02-02T03:26:05.946Z,7.00
2023-02-02T03:28:32.958Z,7.00
2023-02-02T03:31:01.317Z,7.00
2023-02-02T03:33:28.348Z,7.00
2023-02-02T03:35:55.107Z,7.00
2023-02-02T03:38:22.022Z,7.00
2023-02-02T03:40:48.758Z,7.00
2023-02-02T03:43:19.752Z,7.00
2023-02-02T03:45:46.607Z,7.00
2023-02-02T03:48:13.334Z,7.00
2023-02-02T03:50:40.075Z,7.00
2023-02-02T03:53:06.958Z,7.10
2023-02-02T03:55:35.125Z,7.10
2023-02-02T03:58:01.854Z,7.00
2023-02-02T04:00:28.616Z,7.00
2023-02-02T04:02:55.402Z,7.10
2023-02-02T04:05:22.374Z,7.00
2023-02-02T04:07:49.416Z,7.00
2023-02-02T04:10:16.864Z,7.00
2023-02-02T04:12:43.647Z,7.00
2023-02-02T04:15:10.596Z,7.00
2023-02-02T04:17:37.354Z,7.00
2023-02-02T04:20:05.172Z,6.90
2023-02-02T04:22:32.826Z,7.00
2023-02-02T04:24:59.550Z,6.90
2023-02-02T04:27:26.271Z,7.00
2023-02-02T04:29:53.109Z,7.00
2023-02-02T04:32:19.867Z,7.00
2023-02-02T04:34:46.645Z,7.00
2023-02-02T04:37:13.524Z,7.00
2023-02-02T04:39:40.287Z,7.00
2023-02-02T04:42:07.064Z,6.90
2023-02-02T04:44:33.970Z,7.00
2023-02-02T04:47:00.812Z,7.00
2023-02-02T04:49:27.556Z,6.90
2023-02-02T04:51:54.407Z,7.00
2023-02-02T04:54:21.152Z,7.00
2023-02-02T04:56:47.959Z,6.90
2023-02-02T04:59:14.827Z,6.90
2023-02-02T05:01:41.663Z,7.00
2023-02-02T05:04:08.528Z,7.00
2023-02-02T05:06:35.360Z,7.00
2023-02-02T05:09:02.189Z,7.00
2023-02-02T05:11:29.031Z,7.00
2023-02-02T05:13:55.973Z,7.00
2023-02-02T05:16:23.808Z,7.00
2023-02-02T05:18:51.814Z,7.00
2023-02-02T05:21:18.964Z,7.00
2023-02-02T05:23:45.753Z,7.00
2023-02-02T05:26:16.097Z,7.00
2023-02-02T05:28:43.098Z,7.00
2023-02-02T05:31:10.406Z,7.00
2023-02-02T05:33:37.181Z,7.00
2023-02-02T05:36:04.355Z,7.00
2023-02-02T05:38:31.339Z,7.00
2023-02-02T05:40:58.080Z,7.00
2023-02-02T05:43:25.873Z,7.00
2023-02-02T05:45:52.713Z,7.00
2023-02-02T05:48:19.808Z,7.00
2023-02-02T05:50:49.605Z,7.00
2023-02-02T05:53:16.758Z,7.00
2023-02-02T05:55:43.541Z,6.90
2023-02-02T05:58:10.432Z,7.00
2023-02-02T06:00:37.189Z,7.00
2023-02-02T06:03:04.022Z,7.00
2023-02-02T06:05:30.868Z,7.00
2023-02-02T06:07:57.647Z,7.00
2023-02-02T06:10:24.354Z,7.00
2023-02-02T06:12:51.205Z,6.90
2023-02-02T06:15:18.001Z,6.90
2023-02-02T06:17:44.786Z,7.00
2023-02-02T06:20:11.919Z,6.90
2023-02-02T06:22:38.693Z,7.00
2023-02-02T06:25:07.893Z,7.00
2023-02-02T06:27:34.729Z,7.00
2023-02-02T06:30:01.569Z,7.00
2023-02-02T06:32:31.236Z,7.00
2023-02-02T06:34:57.997Z,6.90
2023-02-02T06:37:24.707Z,6.90
2023-02-02T06:39:51.469Z,7.00
2023-02-02T06:42:21.703Z,7.00
2023-02-02T06:44:49.003Z,6.90
2023-02-02T06:47:15.817Z,6.90
2023-02-02T06:49:42.649Z,7.00
2023-02-02T06:52:09.400Z,7.00
2023-02-02T06:54:36.161Z,7.00
2023-02-02T06:57:02.959Z,7.00
2023-02-02T06:59:29.702Z,7.00
2023-02-02T07:01:56.606Z,7.00
2023-02-02T07:04:23.572Z,6.90
2023-02-02T07:06:50.315Z,7.00
2023-02-02T07:09:17.082Z,7.00
2023-02-02T07:11:45.488Z,7.10
2023-02-02T07:14:12.374Z,7.10
2023-02-02T07:16:39.139Z,7.10
2023-02-02T07:19:05.936Z,7.20
2023-02-02T07:21:36.358Z,7.20
2023-02-02T07:24:03.952Z,7.20
2023-02-02T07:26:30.774Z,7.20
2023-02-02T07:28:57.661Z,7.20
2023-02-02T07:31:25.723Z,7.20
2023-02-02T07:33:52.986Z,7.20
2023-02-02T07:36:21.271Z,7.20
2023-02-02T07:38:48.559Z,7.10
2023-02-02T07:41:16.350Z,7.20
2023-02-02T07:43:43.160Z,7.20
2023-02-02T07:46:10.652Z,7.20
2023-02-02T07:48:37.599Z,7.20
2023-02-02T07:51:05.931Z,7.20
2023-02-02T07:53:33.111Z,7.30
2023-02-02T07:56:10.772Z,7.20
2023-02-02T07:58:37.505Z,7.20
2023-02-02T08:01:05.047Z,7.30
2023-02-02T08:03:32.053Z,7.40
2023-02-02T08:05:59.194Z,7.20
2023-02-02T08:08:26.041Z,7.20
2023-02-02T08:10:53.611Z,7.30
2023-02-02T08:13:20.816Z,7.30
2023-02-02T08:15:47.698Z,7.30
2023-02-02T08:18:14.524Z,7.30
2023-02-02T08:20:41.311Z,7.30
2023-02-02T08:23:13.889Z,7.30
2023-02-02T08:25:40.735Z,7.30
2023-02-02T08:28:07.490Z,7.30
2023-02-02T08:30:37.236Z,7.40
2023-02-02T08:33:04.247Z,7.30
2023-02-02T08:35:30.999Z,7.30
2023-02-02T08:37:57.762Z,7.30
2023-02-02T08:40:25.453Z,7.30
2023-02-02T08:42:55.615Z,7.30
2023-02-02T08:46:02.361Z,7.30
2023-02-02T08:48:12.420Z,7.30
2023-02-02T08:50:39.647Z,7.30
2023-02-02T08:53:06.416Z,7.30
2023-02-02T08:55:37.232Z,7.30
2023-02-02T08:58:06.223Z,7.30
2023-02-02T09:00:32.985Z,7.30
2023-02-02T09:02:59.883Z,7.30
2023-02-02T09:05:26.930Z,7.30
2023-02-02T09:07:53.833Z,7.50
2023-02-02T09:10:20.806Z,7.50
2023-02-02T09:12:47.635Z,7.30
2023-02-02T09:15:14.406Z,7.40
2023-02-02T09:17:41.146Z,7.40
2023-02-02T09:20:08.010Z,7.40
2023-02-02T09:22:34.729Z,7.50
2023-02-02T09:25:01.543Z,7.40
2023-02-02T09:27:28.317Z,7.50
2023-02-02T09:29:55.138Z,7.40
2023-02-02T09:32:21.967Z,7.40
2023-02-02T09:34:48.832Z,7.50
2023-02-02T09:37:15.611Z,7.40
2023-02-02T09:39:42.404Z,7.50
2023-02-02T09:42:21.298Z,7.50
2023-02-02T09:44:59.918Z,7.50
2023-02-02T09:47:42.074Z,7.60
2023-02-02T09:50:16.832Z,7.60
2023-02-02T09:52:51.621Z,7.70
2023-02-02T09:55:25.173Z,7.80
2023-02-02T09:57:54.280Z,7.80
2023-02-02T10:00:29.530Z,7.90
2023-02-02T10:03:02.809Z,7.90
2023-02-02T10:05:35.607Z,8.00
2023-02-02T10:08:05.494Z,8.00
2023-02-02T10:10:34.769Z,7.90
2023-02-02T10:13:06.060Z,7.90
2023-02-02T10:15:51.030Z,7.90
2023-02-02T10:18:29.719Z,8.00
2023-02-02T10:21:01.136Z,8.00
2023-02-02T10:23:33.145Z,7.90
2023-02-02T10:26:12.848Z,7.90
2023-02-02T10:28:39.570Z,8.00
2023-02-02T10:31:11.339Z,8.10
2023-02-02T10:33:39.302Z,8.10
2023-02-02T10:36:06.218Z,8.10
2023-02-02T10:38:45.845Z,8.10
2023-02-02T10:41:25.081Z,8.10
2023-02-02T10:43:51.960Z,8.10
2023-02-02T10:46:26.866Z,8.10
2023-02-02T10:49:01.992Z,8.10
2023-02-02T10:51:29.288Z,8.20
2023-02-02T10:53:59.672Z,8.20
2023-02-02T10:56:29.969Z,8.30
2023-02-02T10:59:14.329Z,8.20
2023-02-02T11:01:41.192Z,8.10
2023-02-02T11:04:28.375Z,8.10
2023-02-02T11:06:55.463Z,8.10
2023-02-02T11:09:26.441Z,8.10
2023-02-02T11:11:55.311Z,8.20
2023-02-02T11:14:29.212Z,8.20
2023-02-02T11:17:05.977Z,8.30
2023-02-02T11:19:33.920Z,8.40
2023-02-02T11:22:04.497Z,8.40
2023-02-02T11:24:39.931Z,8.50
2023-02-02T11:27:19.510Z,8.50
2023-02-02T11:29:48.153Z,8.60
2023-02-02T11:32:32.915Z,8.60
2023-02-02T11:35:02.904Z,8.50
2023-02-02T11:37:30.702Z,8.40
2023-02-02T11:40:16.355Z,8.50
2023-02-02T11:42:47.865Z,8.50
2023-02-02T11:45:20.173Z,8.40
2023-02-02T11:47:47.098Z,8.50
2023-02-02T11:50:31.900Z,8.60
2023-02-02T11:52:58.749Z,8.50
2023-02-02T11:55:30.022Z,8.50
2023-02-02T11:58:15.780Z,8.50
2023-02-02T12:00:54.811Z,8.60
2023-02-02T12:03:26.156Z,8.50
2023-02-02T12:05:53.037Z,8.50
2023-02-02T12:08:20.706Z,8.60
2023-02-02T12:11:03.741Z,8.70
2023-02-02T12:13:42.908Z,8.80
2023-02-02T12:16:33.201Z,8.80
2023-02-02T12:19:06.504Z,8.50
2023-02-02T12:21:43.710Z,8.30
2023-02-02T12:24:23.854Z,8.20
2023-02-02T12:26:56.381Z,8.10
2023-02-02T12:29:41.987Z,8.10
2023-02-02T12:32:08.837Z,8.00
2023-02-02T12:34:50.688Z,8.00
2023-02-02T12:37:25.125Z,8.00
2023-02-02T12:39:51.817Z,8.00
2023-02-02T12:42:24.081Z,8.00
2023-02-02T12:44:51.219Z,8.00
2023-02-02T12:47:20.513Z,8.00
2023-02-02T12:50:05.699Z,8.00
2023-02-02T12:52:32.477Z,8.00
2023-02-02T12:55:09.336Z,7.90
2023-02-02T12:57:36.081Z,8.00
2023-02-02T13:00:02.825Z,8.00
2023-02-02T13:02:35.710Z,7.90
2023-02-02T13:05:05.531Z,7.90
2023-02-02T13:07:35.292Z,7.90
2023-02-02T13:10:06.187Z,7.90
2023-02-02T13:12:34.394Z,7.90
2023-02-02T13:15:03.138Z,7.90
2023-02-02T13:17:32.581Z,7.90
2023-02-02T13:20:05.606Z,7.90
2023-02-02T13:22:36.261Z,7.90
2023-02-02T13:25:05.211Z,7.90
2023-02-02T13:27:32.943Z,7.90
2023-02-02T13:30:26.077Z,7.90
2023-02-02T13:32:53.614Z,7.90
2023-02-02T13:35:25.756Z,7.90
2023-02-02T13:38:05.063Z,7.90
2023-02-02T13:40:41.737Z,7.90
2023-02-02T13:43:08.765Z,7.90
2023-02-02T13:45:41.524Z,7.80
2023-02-02T13:48:17.187Z,7.90
2023-02-02T13:51:04.176Z,7.80
2023-02-02T13:53:47.250Z,7.90
2023-02-02T13:56:17.420Z,7.80
2023-02-02T13:58:51.261Z,7.90
2023-02-02T14:01:19.103Z,7.90
2023-02-02T14:03:52.429Z,7.90
2023-02-02T14:06:20.515Z,7.90
2023-02-02T14:08:57.457Z,7.90
2023-02-02T14:11:26.654Z,7.80
2023-02-02T14:14:31.944Z,7.80
2023-02-02T14:16:59.783Z,7.80
2023-02-02T14:19:29.253Z,7.80
2023-02-02T14:22:14.572Z,7.80
2023-02-02T14:24:53.620Z,7.80
2023-02-02T14:27:20.423Z,7.80
2023-02-02T14:29:47.292Z,7.80
2023-02-02T14:32:29.453Z,7.80
2023-02-02T14:35:08.189Z,7.80
2023-02-02T14:37:41.219Z,7.80
2023-02-02T14:40:10.746Z,7.80
2023-02-02T14:43:11.420Z,7.80
2023-02-02T14:45:41.956Z,7.80
2023-02-02T14:48:12.819Z,7.80
2023-02-02T14:50:48.084Z,7.80
2023-02-02T14:53:21.076Z,7.80
2023-02-02T14:55:55.847Z,7.80
2023-02-02T14:58:25.908Z,7.80
2023-02-02T15:00:57.836Z,7.80
2023-02-02T15:03:35.493Z,7.80
2023-02-02T15:06:08.798Z,7.80
2023-02-02T15:08:35.625Z,7.80
2023-02-02T15:11:24.070Z,7.80
2023-02-02T15:17:24.547Z,7.80
2023-02-02T15:20:09.660Z,7.80
2023-02-02T15:22:40.570Z,7.80
2023-02-02T15:25:26.033Z,7.80
2023-02-02T15:28:11.578Z,7.80
2023-02-02T15:30:41.846Z,7.80
2023-02-02T15:33:18.193Z,7.80
2023-02-02T15:35:45.108Z,7.80
2023-02-02T15:38:15.319Z,7.70
2023-02-02T15:40:42.346Z,7.70
2023-02-02T15:43:10.673Z,7.70
2023-02-02T15:45:43.833Z,7.70
2023-02-02T15:48:29.943Z,7.70
2023-02-02T15:51:00.667Z,7.70
2023-02-02T15:53:29.032Z,7.70
2023-02-02T15:55:56.925Z,7.70
2023-02-02T15:58:33.933Z,7.70
2023-02-02T16:01:02.306Z,7.70
2023-02-02T16:03:36.194Z,7.70
2023-02-02T16:06:04.701Z,7.70
2023-02-02T16:08:35.141Z,7.70
2023-02-02T16:11:12.611Z,7.70
2023-02-02T16:13:40.392Z,7.70
2023-02-02T16:16:21.229Z,7.70
2023-02-02T16:18:48.029Z,7.70
2023-02-02T16:21:23.506Z,7.70
2023-02-02T16:23:51.348Z,7.70
2023-02-02T16:26:19.607Z,7.60
2023-02-02T16:28:46.813Z,7.60
2023-02-02T16:31:14.652Z,7.70
2023-02-02T16:33:42.148Z,7.70
2023-02-02T16:36:25.426Z,7.60
2023-02-02T16:38:53.202Z,7.60
2023-02-02T16:41:34.498Z,7.60
2023-02-02T16:44:19.863Z,7.60
2023-02-02T16:46:48.551Z,7.60
2023-02-02T16:49:21.785Z,7.60
2023-02-02T16:51:49.576Z,7.60
2023-02-02T16:54:20.690Z,7.60
2023-02-02T16:56:49.453Z,7.60
2023-02-02T16:59:16.207Z,7.60
2023-02-02T17:01:46.413Z,7.50
2023-02-02T17:04:32.613Z,7.60
2023-02-02T17:07:14.387Z,7.60
2023-02-02T17:09:42.758Z,7.50
2023-02-02T17:12:30.468Z,7.60
2023-02-02T17:15:05.756Z,7.60
2023-02-02T17:17:32.520Z,7.60
2023-02-02T17:19:59.270Z,7.60
2023-02-02T17:22:27.926Z,7.60
2023-02-02T17:24:54.711Z,7.50
2023-02-02T17:27:26.206Z,7.60
2023-02-02T17:29:53.943Z,7.50
2023-02-02T17:32:20.702Z,7.50
2023-02-02T17:34:47.425Z,7.50
2023-02-02T17:37:14.229Z,7.50
2023-02-02T17:39:40.972Z,7.50
2023-02-02T17:42:15.246Z,7.50
2023-02-02T17:44:41.985Z,7.50
2023-02-02T17:47:11.906Z,7.50
2023-02-02T17:49:39.077Z,7.50
2023-02-02T17:52:05.825Z,7.50
2023-02-02T17:54:32.676Z,7.50
2023-02-02T17:56:59.585Z,7.50
2023-02-02T17:59:26.346Z,7.50
2023-02-02T18:01:55.046Z,7.50
2023-02-02T18:04:22.094Z,7.50
2023-02-02T18:06:49.258Z,7.50
2023-02-02T18:09:16.066Z,7.50
2023-02-02T18:11:45.613Z,7.60
2023-02-02T18:14:12.379Z,7.60
2023-02-02T18:16:39.195Z,7.50
2023-02-02T18:19:06.058Z,7.50
2023-02-02T18:21:32.810Z,7.50
2023-02-02T18:23:59.636Z,7.50
2023-02-02T18:26:27.150Z,7.50
2023-02-02T18:28:53.986Z,7.50
2023-02-02T18:31:21.607Z,7.50
2023-02-02T18:33:48.602Z,7.50
2023-02-02T18:36:20.018Z,7.50
2023-02-02T18:38:47.691Z,7.50
2023-02-02T18:41:15.649Z,7.50
2023-02-02T18:43:42.401Z,7.50
2023-02-02T18:46:13.537Z,7.50
2023-02-02T18:48:41.090Z,7.50
2023-02-02T18:51:09.188Z,7.50
2023-02-02T18:53:35.929Z,7.50
2023-02-02T18:56:06.599Z,7.50
2023-02-02T18:58:37.030Z,7.50
2023-02-02T19:01:10.745Z,7.50
2023-02-02T19:03:37.783Z,7.50
2023-02-02T19:06:23.364Z,7.50
2023-02-02T19:08:50.125Z,7.50
2023-02-02T19:11:18.244Z,7.50
2023-02-02T19:13:45.153Z,7.50
2023-02-02T19:16:26.413Z,7.50
2023-02-02T19:18:56.626Z,7.50
2023-02-02T19:21:23.514Z,7.50
2023-02-02T19:23:50.245Z,7.50
2023-02-02T19:26:24.826Z,7.50
2023-02-02T19:28:52.458Z,7.50
2023-02-02T19:31:19.708Z,7.40
2023-02-02T19:33:50.614Z,7.50
2023-02-02T19:36:18.581Z,7.50
2023-02-02T19:38:45.826Z,7.50
2023-02-02T19:41:15.581Z,7.50
2023-02-02T19:43:47.554Z,7.50
2023-02-02T19:46:22.781Z,7.50
2023-02-02T19:48:52.329Z,7.50
2023-02-02T19:51:37.478Z,7.50
2023-02-02T19:54:05.113Z,7.50
2023-02-02T19:56:36.172Z,7.50
2023-02-02T19:59:03.054Z,7.50
2023-02-02T20:01:32.734Z,7.50
2023-02-02T20:04:00.988Z,7.50
2023-02-02T20:06:30.756Z,7.50
2023-02-02T20:08:59.967Z,7.50
2023-02-02T20:11:32.513Z,7.50
2023-02-02T20:14:00.613Z,7.50
2023-02-02T20:16:34.052Z,7.50
2023-02-02T20:19:00.833Z,7.50
2023-02-02T20:21:38.530Z,7.50
2023-02-02T20:24:19.221Z,7.50
2023-02-02T20:26:46.197Z,7.50
2023-02-02T20:29:23.233Z,7.50
2023-02-02T20:31:51.800Z,7.50
2023-02-02T20:34:29.125Z,7.50
2023-02-02T20:37:20.054Z,7.50
2023-02-02T20:39:48.119Z,7.50
2023-02-02T20:42:15.378Z,7.50
2023-02-02T20:44:42.369Z,7.50
2023-02-02T20:47:09.225Z,7.50
2023-02-02T20:49:37.068Z,7.50
2023-02-02T20:52:05.468Z,7.50
2023-02-02T20:54:33.125Z,7.50
2023-02-02T20:57:00.515Z,7.50
2023-02-02T20:59:27.439Z,7.50
2023-02-02T21:01:54.249Z,7.50
2023-02-02T21:04:21.467Z,7.50
2023-02-02T21:06:49.034Z,7.50
2023-02-02T21:09:16.181Z,7.50
2023-02-02T21:11:43.403Z,7.50
2023-02-02T21:14:10.340Z,7.50
2023-02-02T21:16:37.138Z,7.50
2023-02-02T21:19:04.132Z,7.50
2023-02-02T21:21:31.124Z,7.50
2023-02-02T21:23:57.971Z,7.50
2023-02-02T21:26:30.458Z,7.50
2023-02-02T21:28:58.512Z,7.50
2023-02-02T21:31:25.994Z,7.50
2023-02-02T21:33:53.294Z,7.50
2023-02-02T21:36:20.961Z,7.60
2023-02-02T21:38:47.827Z,7.50
2023-02-02T21:41:15.517Z,7.60
2023-02-02T21:43:42.896Z,7.50
2023-02-02T21:46:20.050Z,7.50
2023-02-02T21:48:47.748Z,7.50
2023-02-02T21:51:20.311Z,7.50
2023-02-02T21:53:47.062Z,7.50
2023-02-02T21:56:23.966Z,7.50
2023-02-02T21:58:50.818Z,7.60
2023-02-02T22:01:22.527Z,7.60
2023-02-02T22:03:50.458Z,7.50
2023-02-02T22:06:20.248Z,7.50
2023-02-02T22:08:47.589Z,7.50
2023-02-02T22:11:34.579Z,7.50
2023-02-02T22:14:21.550Z,7.50
2023-02-02T22:16:58.217Z,7.50
2023-02-02T22:19:26.281Z,7.50
2023-02-02T22:21:54.179Z,7.50
2023-02-02T22:24:21.312Z,7.60
2023-02-02T22:26:48.375Z,7.50
2023-02-02T22:29:17.067Z,7.50
2023-02-02T22:31:44.043Z,7.50
2023-02-02T22:34:10.804Z,7.50
2023-02-02T22:36:37.762Z,7.50
2023-02-02T22:39:05.491Z,7.50
2023-02-02T22:41:32.253Z,7.50
2023-02-02T22:43:59.038Z,7.50
2023-02-02T22:46:25.922Z,7.50
2023-02-02T22:48:52.699Z,7.50
2023-02-02T22:51:19.546Z,7.50
2023-02-02T22:53:46.383Z,7.60
2023-02-02T22:56:13.111Z,7.50
2023-02-02T22:58:39.830Z,7.50
2023-02-02T23:01:06.681Z,7.50
2023-02-02T23:03:33.421Z,7.60
2023-02-02T23:06:00.153Z,7.60
2023-02-02T23:08:26.982Z,7.60
2023-02-02T23:10:53.802Z,7.60
2023-02-02T23:13:20.688Z,7.60
2023-02-02T23:15:47.552Z,7.60
2023-02-02T23:18:14.280Z,7.50
2023-02-02T23:20:41.017Z,7.50
2023-02-02T23:23:07.865Z,7.50
2023-02-02T23:25:34.706Z,7.50
2023-02-02T23:28:01.470Z,7.50
2023-02-02T23:30:28.725Z,7.50
2023-02-02T23:32:55.549Z,7.60
2023-02-02T23:35:22.377Z,7.60
2023-02-02T23:37:49.157Z,7.60
2023-02-02T23:40:16.075Z,7.50
2023-02-02T23:42:42.829Z,7.50
2023-02-02T23:45:09.844Z,7.50
2023-02-02T23:47:36.636Z,7.50
2023-02-02T23:50:04.510Z,7.50
2023-02-02T23:52:31.908Z,7.60
2023-02-02T23:54:59.277Z,7.60
2023-02-02T23:57:25.993Z,7.60
2023-02-02T23:59:52.809Z,7.60
